sensor_id;sensor_type;location;lat;lon;timestamp;pressure;altitude;pressure_sealevel;temperature;humidity
76108;BME280;64834;52.516;10.528;2023-02-11T00:01:40;102413.06;;;4.86;79.69
76108;BME280;64834;52.516;10.528;2023-02-11T00:04:06;102405.13;;;4.84;79.98
76108;BME280;64834;52.516;10.528;2023-02-11T00:06:33;102411.03;;;4.83;80.50
76108;BME280;64834;52.516;10.528;2023-02-11T00:09:00;102408.44;;;4.83;80.85
76108;BME280;64834;52.516;10.528;2023-02-11T00:11:27;102409.81;;;4.80;81.13
76108;BME280;64834;52.516;10.528;2023-02-11T00:13:56;102387.13;;;4.86;81.19
76108;BME280;64834;52.516;10.528;2023-02-11T00:16:21;102396.56;;;4.85;81.42
76108;BME280;64834;52.516;10.528;2023-02-11T00:18:47;102388.06;;;4.95;81.61
76108;BME280;64834;52.516;10.528;2023-02-11T00:21:23;102377.03;;;4.89;81.88
76108;BME280;64834;52.516;10.528;2023-02-11T00:23:49;102388.97;;;4.96;82.02
76108;BME280;64834;52.516;10.528;2023-02-11T00:26:17;102409.47;;;5.01;81.89
76108;BME280;64834;52.516;10.528;2023-02-11T00:28:42;102396.34;;;5.00;82.11
76108;BME280;64834;52.516;10.528;2023-02-11T00:31:08;102431.91;;;5.01;82.19
76108;BME280;64834;52.516;10.528;2023-02-11T00:33:33;102438.44;;;4.97;82.30
76108;BME280;64834;52.516;10.528;2023-02-11T00:36:03;102415.91;;;5.05;82.26
76108;BME280;64834;52.516;10.528;2023-02-11T00:38:28;102440.28;;;4.98;82.60
76108;BME280;64834;52.516;10.528;2023-02-11T00:40:54;102446.03;;;4.96;83.26
76108;BME280;64834;52.516;10.528;2023-02-11T00:43:19;102460.22;;;4.91;83.27
76108;BME280;64834;52.516;10.528;2023-02-11T00:45:44;102457.78;;;4.92;83.53
76108;BME280;64834;52.516;10.528;2023-02-11T00:48:10;102464.41;;;4.97;83.69
76108;BME280;64834;52.516;10.528;2023-02-11T00:50:35;102472.63;;;5.02;83.07
76108;BME280;64834;52.516;10.528;2023-02-11T00:53:00;102439.19;;;4.96;83.50
76108;BME280;64834;52.516;10.528;2023-02-11T00:55:26;102446.53;;;5.00;83.58
76108;BME280;64834;52.516;10.528;2023-02-11T00:57:51;102454.75;;;4.96;83.72
76108;BME280;64834;52.516;10.528;2023-02-11T01:00:16;102450.78;;;4.91;84.07
76108;BME280;64834;52.516;10.528;2023-02-11T01:02:42;102444.66;;;4.91;84.12
76108;BME280;64834;52.516;10.528;2023-02-11T01:05:07;102455.78;;;4.90;84.18
76108;BME280;64834;52.516;10.528;2023-02-11T01:07:32;102453.69;;;4.94;84.61
76108;BME280;64834;52.516;10.528;2023-02-11T01:09:58;102451.84;;;4.93;84.46
76108;BME280;64834;52.516;10.528;2023-02-11T01:12:23;102439.28;;;4.89;84.67
76108;BME280;64834;52.516;10.528;2023-02-11T01:14:49;102437.03;;;4.92;84.83
76108;BME280;64834;52.516;10.528;2023-02-11T01:17:14;102433.81;;;4.86;85.40
76108;BME280;64834;52.516;10.528;2023-02-11T01:19:40;102434.88;;;4.88;85.10
76108;BME280;64834;52.516;10.528;2023-02-11T01:22:05;102440.41;;;4.91;85.31
76108;BME280;64834;52.516;10.528;2023-02-11T01:24:30;102435.94;;;4.90;84.94
76108;BME280;64834;52.516;10.528;2023-02-11T01:26:56;102422.25;;;4.91;85.63
76108;BME280;64834;52.516;10.528;2023-02-11T01:29:21;102433.53;;;4.92;85.62
76108;BME280;64834;52.516;10.528;2023-02-11T01:31:47;102423.31;;;4.93;85.71
76108;BME280;64834;52.516;10.528;2023-02-11T01:34:12;102428.16;;;4.90;86.38
76108;BME280;64834;52.516;10.528;2023-02-11T01:36:38;102409.44;;;4.93;86.54
76108;BME280;64834;52.516;10.528;2023-02-11T01:39:03;102421.31;;;4.91;86.30
76108;BME280;64834;52.516;10.528;2023-02-11T01:41:29;102426.66;;;4.92;86.24
76108;BME280;64834;52.516;10.528;2023-02-11T01:43:54;102411.88;;;4.91;86.67
76108;BME280;64834;52.516;10.528;2023-02-11T01:46:34;102414.63;;;4.93;86.34
76108;BME280;64834;52.516;10.528;2023-02-11T01:49:08;102415.19;;;4.90;86.61
76108;BME280;64834;52.516;10.528;2023-02-11T01:51:45;102401.00;;;4.86;86.79
76108;BME280;64834;52.516;10.528;2023-02-11T01:54:16;102395.53;;;4.92;87.05
76108;BME280;64834;52.516;10.528;2023-02-11T01:57:01;102386.84;;;4.92;86.79
76108;BME280;64834;52.516;10.528;2023-02-11T02:00:22;102385.59;;;4.88;87.57
76108;BME280;64834;52.516;10.528;2023-02-11T02:02:56;102382.22;;;4.89;87.60
76108;BME280;64834;52.516;10.528;2023-02-11T02:05:37;102393.97;;;4.85;87.59
76108;BME280;64834;52.516;10.528;2023-02-11T02:08:20;102383.91;;;4.88;87.55
76108;BME280;64834;52.516;10.528;2023-02-11T02:10:49;102387.41;;;4.89;87.69
76108;BME280;64834;52.516;10.528;2023-02-11T02:13:18;102380.09;;;4.85;87.77
76108;BME280;64834;52.516;10.528;2023-02-11T02:15:48;102389.84;;;4.87;88.07
76108;BME280;64834;52.516;10.528;2023-02-11T02:32:54;102395.97;;;4.88;88.74
76108;BME280;64834;52.516;10.528;2023-02-11T02:35:30;102379.47;;;4.87;88.96
76108;BME280;64834;52.516;10.528;2023-02-11T02:38:10;102380.41;;;4.88;89.02
76108;BME280;64834;52.516;10.528;2023-02-11T02:40:45;102376.59;;;4.84;89.63
76108;BME280;64834;52.516;10.528;2023-02-11T02:43:13;102371.56;;;4.86;89.28
76108;BME280;64834;52.516;10.528;2023-02-11T02:45:39;102360.25;;;4.85;89.66
76108;BME280;64834;52.516;10.528;2023-02-11T02:48:05;102359.34;;;4.85;89.88
76108;BME280;64834;52.516;10.528;2023-02-11T02:50:33;102363.91;;;4.87;89.77
76108;BME280;64834;52.516;10.528;2023-02-11T02:53:26;102348.69;;;4.91;89.85
76108;BME280;64834;52.516;10.528;2023-02-11T02:56:13;102351.28;;;4.91;90.03
76108;BME280;64834;52.516;10.528;2023-02-11T02:58:53;102351.88;;;4.88;89.77
76108;BME280;64834;52.516;10.528;2023-02-11T03:01:33;102346.84;;;4.90;89.99
76108;BME280;64834;52.516;10.528;2023-02-11T03:04:13;102338.13;;;4.89;89.93
76108;BME280;64834;52.516;10.528;2023-02-11T03:12:33;102332.53;;;4.93;90.15
76108;BME280;64834;52.516;10.528;2023-02-11T03:15:01;102340.31;;;4.93;90.27
76108;BME280;64834;52.516;10.528;2023-02-11T03:17:28;102330.41;;;4.98;90.23
76108;BME280;64834;52.516;10.528;2023-02-11T03:19:57;102328.72;;;4.98;90.22
76108;BME280;64834;52.516;10.528;2023-02-11T03:22:28;102332.81;;;4.96;90.36
76108;BME280;64834;52.516;10.528;2023-02-11T03:24:55;102330.56;;;4.99;90.25
76108;BME280;64834;52.516;10.528;2023-02-11T03:27:37;102330.72;;;5.01;90.64
76108;BME280;64834;52.516;10.528;2023-02-11T03:30:12;102333.94;;;4.98;90.85
76108;BME280;64834;52.516;10.528;2023-02-11T03:32:46;102333.47;;;5.02;90.66
76108;BME280;64834;52.516;10.528;2023-02-11T03:35:18;102334.06;;;5.00;90.56
76108;BME280;64834;52.516;10.528;2023-02-11T03:37:52;102326.94;;;5.06;90.70
76108;BME280;64834;52.516;10.528;2023-02-11T03:40:40;102326.63;;;5.03;90.70
76108;BME280;64834;52.516;10.528;2023-02-11T03:43:11;102334.72;;;5.06;90.62
76108;BME280;64834;52.516;10.528;2023-02-11T03:45:39;102333.03;;;5.06;90.51
76108;BME280;64834;52.516;10.528;2023-02-11T03:48:10;102334.84;;;5.07;90.60
76108;BME280;64834;52.516;10.528;2023-02-11T03:50:37;102339.63;;;5.11;90.59
76108;BME280;64834;52.516;10.528;2023-02-11T03:53:05;102344.66;;;5.10;90.54
76108;BME280;64834;52.516;10.528;2023-02-11T03:55:35;102344.03;;;5.12;90.44
76108;BME280;64834;52.516;10.528;2023-02-11T03:58:02;102340.25;;;5.18;90.41
76108;BME280;64834;52.516;10.528;2023-02-11T04:00:32;102348.03;;;5.18;90.35
76108;BME280;64834;52.516;10.528;2023-02-11T04:02:57;102342.84;;;5.18;90.68
76108;BME280;64834;52.516;10.528;2023-02-11T04:05:23;102342.09;;;5.19;90.65
76108;BME280;64834;52.516;10.528;2023-02-11T04:07:48;102349.25;;;5.21;90.80
76108;BME280;64834;52.516;10.528;2023-02-11T04:10:13;102350.63;;;5.18;90.81
76108;BME280;64834;52.516;10.528;2023-02-11T04:12:39;102342.56;;;5.23;90.73
76108;BME280;64834;52.516;10.528;2023-02-11T04:15:05;102338.59;;;5.27;90.80
76108;BME280;64834;52.516;10.528;2023-02-11T04:17:30;102343.19;;;5.29;90.66
76108;BME280;64834;52.516;10.528;2023-02-11T04:19:55;102347.00;;;5.24;90.83
76108;BME280;64834;52.516;10.528;2023-02-11T04:22:20;102350.06;;;5.29;90.65
76108;BME280;64834;52.516;10.528;2023-02-11T04:24:46;102334.66;;;5.30;90.87
76108;BME280;64834;52.516;10.528;2023-02-11T04:27:11;102351.28;;;5.32;90.83
76108;BME280;64834;52.516;10.528;2023-02-11T04:29:36;102357.25;;;5.31;90.31
76108;BME280;64834;52.516;10.528;2023-02-11T04:32:02;102347.91;;;5.33;90.67
76108;BME280;64834;52.516;10.528;2023-02-11T04:34:27;102352.19;;;5.33;90.76
76108;BME280;64834;52.516;10.528;2023-02-11T04:36:52;102336.31;;;5.30;90.71
76108;BME280;64834;52.516;10.528;2023-02-11T04:39:18;102339.06;;;5.31;90.73
76108;BME280;64834;52.516;10.528;2023-02-11T04:41:43;102346.72;;;5.30;90.71
76108;BME280;64834;52.516;10.528;2023-02-11T04:44:09;102331.00;;;5.37;90.94
76108;BME280;64834;52.516;10.528;2023-02-11T04:46:34;102341.06;;;5.34;90.88
76108;BME280;64834;52.516;10.528;2023-02-11T04:49:00;102339.06;;;5.31;91.01
76108;BME280;64834;52.516;10.528;2023-02-11T04:51:25;102345.81;;;5.38;90.91
76108;BME280;64834;52.516;10.528;2023-02-11T04:53:50;102344.13;;;5.38;90.86
76108;BME280;64834;52.516;10.528;2023-02-11T04:56:16;102329.47;;;5.39;90.89
76108;BME280;64834;52.516;10.528;2023-02-11T04:58:41;102329.94;;;5.35;91.25
76108;BME280;64834;52.516;10.528;2023-02-11T05:01:08;102327.50;;;5.36;91.17
76108;BME280;64834;52.516;10.528;2023-02-11T05:03:35;102332.69;;;5.36;90.95
76108;BME280;64834;52.516;10.528;2023-02-11T05:06:01;102326.44;;;5.34;91.37
76108;BME280;64834;52.516;10.528;2023-02-11T05:08:26;102321.06;;;5.33;91.23
76108;BME280;64834;52.516;10.528;2023-02-11T05:10:51;102317.88;;;5.35;91.15
76108;BME280;64834;52.516;10.528;2023-02-11T05:13:16;102326.88;;;5.39;91.40
76108;BME280;64834;52.516;10.528;2023-02-11T05:15:42;102323.50;;;5.40;91.30
76108;BME280;64834;52.516;10.528;2023-02-11T05:18:07;102333.88;;;5.40;91.45
76108;BME280;64834;52.516;10.528;2023-02-11T05:20:32;102324.75;;;5.44;91.13
76108;BME280;64834;52.516;10.528;2023-02-11T05:22:58;102315.72;;;5.40;91.47
76108;BME280;64834;52.516;10.528;2023-02-11T05:25:23;102322.78;;;5.41;91.23
76108;BME280;64834;52.516;10.528;2023-02-11T05:27:48;102315.56;;;5.38;91.41
76108;BME280;64834;52.516;10.528;2023-02-11T05:30:14;102313.47;;;5.43;91.34
76108;BME280;64834;52.516;10.528;2023-02-11T05:32:39;102323.06;;;5.44;91.25
76108;BME280;64834;52.516;10.528;2023-02-11T05:35:05;102305.97;;;5.46;91.28
76108;BME280;64834;52.516;10.528;2023-02-11T05:37:30;102310.41;;;5.47;91.44
76108;BME280;64834;52.516;10.528;2023-02-11T05:39:55;102304.13;;;5.45;91.53
76108;BME280;64834;52.516;10.528;2023-02-11T05:42:20;102293.91;;;5.47;91.34
76108;BME280;64834;52.516;10.528;2023-02-11T05:44:46;102302.16;;;5.43;91.47
76108;BME280;64834;52.516;10.528;2023-02-11T05:47:11;102296.34;;;5.45;91.74
76108;BME280;64834;52.516;10.528;2023-02-11T05:49:36;102297.88;;;5.43;91.63
76108;BME280;64834;52.516;10.528;2023-02-11T05:52:02;102296.50;;;5.47;91.48
76108;BME280;64834;52.516;10.528;2023-02-11T05:54:27;102305.03;;;5.46;91.51
76108;BME280;64834;52.516;10.528;2023-02-11T05:56:53;102297.44;;;5.47;91.35
76108;BME280;64834;52.516;10.528;2023-02-11T05:59:18;102297.59;;;5.49;91.59
76108;BME280;64834;52.516;10.528;2023-02-11T06:01:43;102288.88;;;5.48;91.32
76108;BME280;64834;52.516;10.528;2023-02-11T06:04:09;102289.19;;;5.51;91.36
76108;BME280;64834;52.516;10.528;2023-02-11T06:06:34;102298.06;;;5.53;91.54
76108;BME280;64834;52.516;10.528;2023-02-11T06:08:59;102277.28;;;5.53;91.60
76108;BME280;64834;52.516;10.528;2023-02-11T06:11:25;102286.00;;;5.54;91.40
76108;BME280;64834;52.516;10.528;2023-02-11T06:13:50;102286.72;;;5.53;91.37
76108;BME280;64834;52.516;10.528;2023-02-11T06:16:15;102282.78;;;5.56;91.25
76108;BME280;64834;52.516;10.528;2023-02-11T06:18:41;102285.38;;;5.56;91.31
76108;BME280;64834;52.516;10.528;2023-02-11T06:21:08;102289.66;;;5.56;91.55
76108;BME280;64834;52.516;10.528;2023-02-11T06:23:33;102258.94;;;5.52;91.58
76108;BME280;64834;52.516;10.528;2023-02-11T06:26:03;102279.88;;;5.53;91.49
76108;BME280;64834;52.516;10.528;2023-02-11T06:28:29;102280.47;;;5.59;91.53
76108;BME280;64834;52.516;10.528;2023-02-11T06:31:04;102272.25;;;5.55;91.34
76108;BME280;64834;52.516;10.528;2023-02-11T06:33:30;102263.97;;;5.59;91.24
76108;BME280;64834;52.516;10.528;2023-02-11T06:35:55;102279.56;;;5.59;91.18
76108;BME280;64834;52.516;10.528;2023-02-11T06:38:21;102283.25;;;5.61;91.40
76108;BME280;64834;52.516;10.528;2023-02-11T06:40:48;102265.50;;;5.57;91.55
76108;BME280;64834;52.516;10.528;2023-02-11T06:43:13;102264.88;;;5.59;91.49
76108;BME280;64834;52.516;10.528;2023-02-11T06:45:39;102264.88;;;5.59;91.51
76108;BME280;64834;52.516;10.528;2023-02-11T06:48:04;102267.34;;;5.58;91.67
76108;BME280;64834;52.516;10.528;2023-02-11T06:50:29;102274.53;;;5.60;91.49
76108;BME280;64834;52.516;10.528;2023-02-11T06:52:55;102281.25;;;5.58;91.38
76108;BME280;64834;52.516;10.528;2023-02-11T06:55:20;102281.88;;;5.56;91.52
76108;BME280;64834;52.516;10.528;2023-02-11T06:57:45;102284.00;;;5.60;91.71
76108;BME280;64834;52.516;10.528;2023-02-11T07:00:11;102280.94;;;5.64;91.50
76108;BME280;64834;52.516;10.528;2023-02-11T07:02:37;102262.63;;;5.62;91.20
76108;BME280;64834;52.516;10.528;2023-02-11T07:05:05;102297.44;;;5.64;91.25
76108;BME280;64834;52.516;10.528;2023-02-11T07:07:30;102289.66;;;5.64;91.13
76108;BME280;64834;52.516;10.528;2023-02-11T07:09:56;102279.13;;;5.63;91.27
76108;BME280;64834;52.516;10.528;2023-02-11T07:12:22;102274.38;;;5.67;91.37
76108;BME280;64834;52.516;10.528;2023-02-11T07:14:47;102262.91;;;5.65;91.14
76108;BME280;64834;52.516;10.528;2023-02-11T07:17:12;102269.97;;;5.66;91.04
76108;BME280;64834;52.516;10.528;2023-02-11T07:19:38;102266.59;;;5.67;91.16
76108;BME280;64834;52.516;10.528;2023-02-11T07:22:03;102259.88;;;5.69;91.13
76108;BME280;64834;52.516;10.528;2023-02-11T07:24:28;102271.31;;;5.72;90.94
76108;BME280;64834;52.516;10.528;2023-02-11T07:26:53;102259.41;;;5.74;90.96
76108;BME280;64834;52.516;10.528;2023-02-11T07:29:19;102272.25;;;5.72;91.11
76108;BME280;64834;52.516;10.528;2023-02-11T07:31:44;102274.84;;;5.72;90.96
76108;BME280;64834;52.516;10.528;2023-02-11T07:34:09;102280.34;;;5.75;90.99
76108;BME280;64834;52.516;10.528;2023-02-11T07:36:35;102285.41;;;5.74;91.26
76108;BME280;64834;52.516;10.528;2023-02-11T07:39:00;102305.06;;;5.72;91.33
76108;BME280;64834;52.516;10.528;2023-02-11T07:41:26;102291.34;;;5.73;91.18
76108;BME280;64834;52.516;10.528;2023-02-11T07:43:52;102288.75;;;5.73;91.43
76108;BME280;64834;52.516;10.528;2023-02-11T07:46:23;102313.81;;;5.72;91.69
76108;BME280;64834;52.516;10.528;2023-02-11T07:48:49;102309.22;;;5.69;91.68
76108;BME280;64834;52.516;10.528;2023-02-11T07:53:44;102321.91;;;5.75;91.59
76108;BME280;64834;52.516;10.528;2023-02-11T07:56:11;102323.44;;;5.73;91.46
76108;BME280;64834;52.516;10.528;2023-02-11T07:58:37;102316.41;;;5.72;91.61
76108;BME280;64834;52.516;10.528;2023-02-11T08:01:08;102316.22;;;5.71;91.82
76108;BME280;64834;52.516;10.528;2023-02-11T08:03:35;102339.78;;;5.72;91.77
76108;BME280;64834;52.516;10.528;2023-02-11T08:06:05;102325.84;;;5.72;91.69
76108;BME280;64834;52.516;10.528;2023-02-11T08:08:30;102320.66;;;5.72;92.02
76108;BME280;64834;52.516;10.528;2023-02-11T08:10:56;102327.25;;;5.68;92.22
76108;BME280;64834;52.516;10.528;2023-02-11T08:13:22;102323.25;;;5.72;92.18
76108;BME280;64834;52.516;10.528;2023-02-11T08:15:47;102317.16;;;5.71;91.98
76108;BME280;64834;52.516;10.528;2023-02-11T08:18:12;102320.84;;;5.73;92.05
76108;BME280;64834;52.516;10.528;2023-02-11T08:20:38;102325.13;;;5.73;92.09
76108;BME280;64834;52.516;10.528;2023-02-11T08:23:05;102324.22;;;5.72;92.32
76108;BME280;64834;52.516;10.528;2023-02-11T08:25:31;102320.06;;;5.74;92.27
76108;BME280;64834;52.516;10.528;2023-02-11T08:27:56;102319.16;;;5.74;92.07
76108;BME280;64834;52.516;10.528;2023-02-11T08:30:22;102313.06;;;5.73;92.03
76108;BME280;64834;52.516;10.528;2023-02-11T08:32:48;102313.03;;;5.64;92.22
76108;BME280;64834;52.516;10.528;2023-02-11T08:35:13;102316.72;;;5.75;92.56
76108;BME280;64834;52.516;10.528;2023-02-11T08:37:38;102317.63;;;5.76;92.45
76108;BME280;64834;52.516;10.528;2023-02-11T08:40:04;102299.28;;;5.74;92.80
76108;BME280;64834;52.516;10.528;2023-02-11T08:42:29;102322.19;;;5.78;92.42
76108;BME280;64834;52.516;10.528;2023-02-11T08:44:55;102308.47;;;5.79;92.33
76108;BME280;64834;52.516;10.528;2023-02-11T08:47:20;102321.47;;;5.79;92.58
76108;BME280;64834;52.516;10.528;2023-02-11T08:49:45;102315.34;;;5.79;92.65
76108;BME280;64834;52.516;10.528;2023-02-11T08:52:11;102322.38;;;5.80;92.56
76108;BME280;64834;52.516;10.528;2023-02-11T08:54:36;102309.53;;;5.81;92.22
76108;BME280;64834;52.516;10.528;2023-02-11T08:57:02;102330.31;;;5.81;92.17
76108;BME280;64834;52.516;10.528;2023-02-11T08:59:27;102333.81;;;5.82;92.36
76108;BME280;64834;52.516;10.528;2023-02-11T09:01:53;102341.00;;;5.84;91.94
76108;BME280;64834;52.516;10.528;2023-02-11T09:04:18;102349.72;;;5.85;91.99
76108;BME280;64834;52.516;10.528;2023-02-11T09:06:44;102368.97;;;5.87;92.15
76108;BME280;64834;52.516;10.528;2023-02-11T09:09:11;102366.38;;;5.87;92.34
76108;BME280;64834;52.516;10.528;2023-02-11T09:11:38;102372.66;;;5.89;92.20
76108;BME280;64834;52.516;10.528;2023-02-11T09:14:04;102385.63;;;5.89;92.13
76108;BME280;64834;52.516;10.528;2023-02-11T09:16:32;102388.22;;;5.89;92.27
76108;BME280;64834;52.516;10.528;2023-02-11T09:19:00;102394.03;;;5.86;92.49
76108;BME280;64834;52.516;10.528;2023-02-11T09:21:26;102389.91;;;5.88;92.62
76108;BME280;64834;52.516;10.528;2023-02-11T09:23:52;102394.19;;;5.88;92.57
76108;BME280;64834;52.516;10.528;2023-02-11T09:26:23;102393.91;;;5.85;93.07
76108;BME280;64834;52.516;10.528;2023-02-11T09:28:49;102401.22;;;5.80;93.25
76108;BME280;64834;52.516;10.528;2023-02-11T09:31:18;102391.13;;;5.83;93.34
76108;BME280;64834;52.516;10.528;2023-02-11T09:33:45;102404.09;;;5.83;93.32
76108;BME280;64834;52.516;10.528;2023-02-11T09:36:19;102414.69;;;5.85;93.43
76108;BME280;64834;52.516;10.528;2023-02-11T09:38:45;102407.03;;;5.86;93.45
76108;BME280;64834;52.516;10.528;2023-02-11T09:43:57;102399.53;;;5.89;93.59
76108;BME280;64834;52.516;10.528;2023-02-11T09:46:26;102398.16;;;5.84;93.86
76108;BME280;64834;52.516;10.528;2023-02-11T09:48:54;102423.53;;;5.87;94.16
76108;BME280;64834;52.516;10.528;2023-02-11T09:51:41;102429.31;;;5.84;94.31
76108;BME280;64834;52.516;10.528;2023-02-11T09:54:16;102412.81;;;5.84;94.57
76108;BME280;64834;52.516;10.528;2023-02-11T09:56:43;102409.50;;;5.85;94.96
76108;BME280;64834;52.516;10.528;2023-02-11T09:59:13;102401.50;;;5.83;94.81
76108;BME280;64834;52.516;10.528;2023-02-11T10:01:46;102400.00;;;5.85;95.19
76108;BME280;64834;52.516;10.528;2023-02-11T10:09:46;102402.75;;;5.87;95.54
76108;BME280;64834;52.516;10.528;2023-02-11T10:12:39;102407.19;;;5.88;95.71
76108;BME280;64834;52.516;10.528;2023-02-11T10:18:19;102427.19;;;5.89;95.75
76108;BME280;64834;52.516;10.528;2023-02-11T10:21:11;102420.53;;;5.91;95.79
76108;BME280;64834;52.516;10.528;2023-02-11T10:23:40;102433.94;;;5.87;95.77
76108;BME280;64834;52.516;10.528;2023-02-11T10:26:11;102419.56;;;5.90;95.75
76108;BME280;64834;52.516;10.528;2023-02-11T10:28:38;102412.75;;;5.91;95.90
76108;BME280;64834;52.516;10.528;2023-02-11T10:31:12;102416.41;;;5.93;95.70
76108;BME280;64834;52.516;10.528;2023-02-11T10:33:53;102416.25;;;5.91;95.91
76108;BME280;64834;52.516;10.528;2023-02-11T10:36:25;102408.59;;;5.93;95.92
76108;BME280;64834;52.516;10.528;2023-02-11T10:38:51;102414.09;;;5.96;95.65
76108;BME280;64834;52.516;10.528;2023-02-11T10:41:23;102417.47;;;5.95;95.65
76108;BME280;64834;52.516;10.528;2023-02-11T10:43:50;102424.69;;;5.98;95.78
76108;BME280;64834;52.516;10.528;2023-02-11T10:46:19;102420.22;;;5.97;95.68
76108;BME280;64834;52.516;10.528;2023-02-11T10:48:51;102410.91;;;5.99;95.63
76108;BME280;64834;52.516;10.528;2023-02-11T10:51:25;102429.09;;;5.99;95.87
76108;BME280;64834;52.516;10.528;2023-02-11T10:56:30;102423.28;;;6.01;95.54
76108;BME280;64834;52.516;10.528;2023-02-11T11:01:52;102445.13;;;6.03;95.58
76108;BME280;64834;52.516;10.528;2023-02-11T11:07:09;102425.44;;;6.05;95.61
76108;BME280;64834;52.516;10.528;2023-02-11T11:09:45;102423.75;;;6.06;95.68
76108;BME280;64834;52.516;10.528;2023-02-11T11:15:12;102419.63;;;6.08;96.01
76108;BME280;64834;52.516;10.528;2023-02-11T11:17:38;102426.50;;;6.07;95.86
76108;BME280;64834;52.516;10.528;2023-02-11T11:22:38;102441.81;;;6.13;95.77
76108;BME280;64834;52.516;10.528;2023-02-11T11:25:04;102431.25;;;6.11;95.42
76108;BME280;64834;52.516;10.528;2023-02-11T11:27:30;102441.66;;;6.11;95.82
76108;BME280;64834;52.516;10.528;2023-02-11T11:29:55;102438.13;;;6.11;95.71
76108;BME280;64834;52.516;10.528;2023-02-11T11:32:24;102441.81;;;6.13;95.79
76108;BME280;64834;52.516;10.528;2023-02-11T11:34:54;102441.94;;;6.14;96.05
76108;BME280;64834;52.516;10.528;2023-02-11T11:37:29;102444.88;;;6.17;95.72
76108;BME280;64834;52.516;10.528;2023-02-11T11:40:02;102433.56;;;6.17;95.88
76108;BME280;64834;52.516;10.528;2023-02-11T11:42:33;102431.88;;;6.17;95.70
76108;BME280;64834;52.516;10.528;2023-02-11T11:45:24;102435.97;;;6.15;95.84
76108;BME280;64834;52.516;10.528;2023-02-11T11:48:08;102435.25;;;6.16;95.77
76108;BME280;64834;52.516;10.528;2023-02-11T11:50:46;102435.53;;;6.19;95.83
76108;BME280;64834;52.516;10.528;2023-02-11T11:55:47;102436.47;;;6.20;95.78
76108;BME280;64834;52.516;10.528;2023-02-11T11:58:21;102437.69;;;6.24;95.58
76108;BME280;64834;52.516;10.528;2023-02-11T12:00:54;102437.84;;;6.25;95.49
76108;BME280;64834;52.516;10.528;2023-02-11T12:04:15;102444.88;;;6.26;95.97
76108;BME280;64834;52.516;10.528;2023-02-11T12:06:52;102445.78;;;6.27;95.78
76108;BME280;64834;52.516;10.528;2023-02-11T12:12:21;102452.22;;;6.30;95.85
76108;BME280;64834;52.516;10.528;2023-02-11T12:20:42;102453.63;;;6.35;95.76
76108;BME280;64834;52.516;10.528;2023-02-11T12:24:17;102445.97;;;6.37;95.48
76108;BME280;64834;52.516;10.528;2023-02-11T12:26:21;102453.75;;;6.37;95.98
76108;BME280;64834;52.516;10.528;2023-02-11T12:29:06;102452.06;;;6.37;95.66
76108;BME280;64834;52.516;10.528;2023-02-11T12:40:17;102445.47;;;6.41;96.05
76108;BME280;64834;52.516;10.528;2023-02-11T12:48:38;102453.59;;;6.53;95.50
76108;BME280;64834;52.516;10.528;2023-02-11T12:53:54;102453.59;;;6.53;95.47
76108;BME280;64834;52.516;10.528;2023-02-11T12:56:35;102458.78;;;6.53;95.64
76108;BME280;64834;52.516;10.528;2023-02-11T12:59:04;102460.63;;;6.54;95.54
76108;BME280;64834;52.516;10.528;2023-02-11T13:06:44;102460.81;;;6.55;95.39
76108;BME280;64834;52.516;10.528;2023-02-11T13:11:50;102457.44;;;6.56;95.57
76108;BME280;64834;52.516;10.528;2023-02-11T13:14:31;102455.41;;;6.54;95.69
76108;BME280;64834;52.516;10.528;2023-02-11T13:17:03;102458.78;;;6.53;95.65
76108;BME280;64834;52.516;10.528;2023-02-11T13:22:34;102460.81;;;6.55;95.90
76108;BME280;64834;52.516;10.528;2023-02-11T13:25:06;102451.16;;;6.54;95.91
76108;BME280;64834;52.516;10.528;2023-02-11T13:27:50;102432.97;;;6.54;96.45
76108;BME280;64834;52.516;10.528;2023-02-11T13:30:30;102434.47;;;6.52;96.40
76108;BME280;64834;52.516;10.528;2023-02-11T13:35:38;102431.88;;;6.52;96.79
76108;BME280;64834;52.516;10.528;2023-02-11T13:38:19;102455.41;;;6.54;96.69
76108;BME280;64834;52.516;10.528;2023-02-11T13:43:24;102460.81;;;6.55;96.86
76108;BME280;64834;52.516;10.528;2023-02-11T13:45:57;102466.91;;;6.56;96.88
76108;BME280;64834;52.516;10.528;2023-02-11T13:48:38;102456.38;;;6.54;96.83
76108;BME280;64834;52.516;10.528;2023-02-11T13:51:07;102460.81;;;6.55;96.71
76108;BME280;64834;52.516;10.528;2023-02-11T13:53:46;102474.25;;;6.60;96.45
76108;BME280;64834;52.516;10.528;2023-02-11T13:56:33;102462.63;;;6.65;96.15
76108;BME280;64834;52.516;10.528;2023-02-11T14:08:10;102467.38;;;6.69;95.89
76108;BME280;64834;52.516;10.528;2023-02-11T14:19:42;102460.47;;;6.78;95.51
76108;BME280;64834;52.516;10.528;2023-02-11T14:27:20;102473.78;;;6.81;95.32
76108;BME280;64834;52.516;10.528;2023-02-11T14:30:11;102492.91;;;6.82;95.67
76108;BME280;64834;52.516;10.528;2023-02-11T14:35:43;102478.84;;;6.80;96.07
76108;BME280;64834;52.516;10.528;2023-02-11T14:43:26;102482.19;;;6.79;96.20
76108;BME280;64834;52.516;10.528;2023-02-11T14:45:53;102480.34;;;6.78;96.41
76108;BME280;64834;52.516;10.528;2023-02-11T14:48:26;102484.66;;;6.77;96.83
76108;BME280;64834;52.516;10.528;2023-02-11T14:51:02;102492.16;;;6.74;97.15
76108;BME280;64834;52.516;10.528;2023-02-11T14:53:31;102505.31;;;6.75;97.10
76108;BME280;64834;52.516;10.528;2023-02-11T14:55:57;102511.28;;;6.74;97.27
76108;BME280;64834;52.516;10.528;2023-02-11T14:58:25;102508.69;;;6.74;97.46
76108;BME280;64834;52.516;10.528;2023-02-11T15:00:59;102503.34;;;6.73;97.30
76108;BME280;64834;52.516;10.528;2023-02-11T15:06:05;102512.66;;;6.71;98.13
76108;BME280;64834;52.516;10.528;2023-02-11T15:08:34;102521.56;;;6.73;97.79